DW3371 Weather Reports


Display with metric or nautical units.
time (UTC)temp
F
wind
direction
speed
MPH
gust
MPH
rain 1hr
in
rain 24hr
in
rain mn
in
humidity
%
barometer
mb
20220926193738 51 300 4.0 9.0 0.00 0.08 0.08 77 1000.7
20220926190738 52 306 3.0 6.0 0.00 0.08 0.08 75 1000.5
20220926180738 53 5 5.0 12.0 0.00 0.08 0.08 71 1000.5
20220926173731 54 316 8.0 16.0 0.00 0.08 0.08 69 1000.3
20220926170731 55 10 3.0 15.0 0.00 0.08 0.08 66 1000.0
20220926153731 58 329 10.0 18.0 0.00 0.08 0.08 58 999.5
20220926150740 57 0 10.0 21.0 0.00 0.08 0.08 58 999.5
20220926133730 57 10 12.0 25.0 0.00 0.08 0.08 64 999.4
20220926130730 59 0 13.0 27.0 0.00 0.08 0.08 61 999.0
20220926120730 58 314 13.0 22.0 0.00 0.08 0.08 63 998.7
20220926113730 58 0 12.0 21.0 0.00 0.08 0.08 63 998.7
20220926110730 58 346 12.0 22.0 0.00 0.08 0.08 65 998.4
20220926100738 57 43 12.0 24.0 0.00 0.08 0.08 67 998.4
20220926090730 56 345 14.0 25.0 0.01 0.08 0.08 72 998.2
20220926080730 54 0 8.0 18.0 0.00 0.07 0.07 84 997.7
20220926073741 53 317 7.0 16.0 0.00 0.07 0.07 86 997.6
20220926063736 52 294 10.0 18.0 0.00 0.07 0.07 88 997.7
20220926060730 53 0 5.0 12.0 0.00 0.07 0.07 88 997.7
20220926043730 53 244 7.0 16.0 0.00 0.06 0.06 88 998.5
20220926040733 52 0 9.0 17.0 0.00 0.06 0.06 87 999.0
20220926030724 51 250 8.0 19.0 0.03 0.06 0.06 86 1000.4
20220926020724 51 225 8.0 16.0 0.02 0.02 0.02 84 1002.0
20220926013722 52 229 8.0 16.0 0.02 0.03 0.02 82 1003.2
20220926010725 53 190 10.0 20.0 0.00 0.01 0.00 76 1003.6
20220926003727 53 0 9.0 19.0 0.00 0.01 0.00 74 1004.2
20220926000722 53 219 8.0 16.0 0.00 0.01 0.00 73 1004.9
20220925233723 54 219 8.0 18.0 0.00 0.01 0.00 72 1005.7
20220925230721 54 248 6.0 13.0 0.00 0.01 0.00 72 1006.8
20220925223718 54 235 6.0 14.0 0.00 0.01 0.01 71 1007.7
20220925220718 54 0 6.0 11.0 0.00 0.01 0.01 71 1008.3
20220925210718 55 283 5.0 13.0 0.00 0.01 0.01 69 1009.4
20220925200716 54 246 5.0 10.0 0.00 0.01 0.01 69 1010.5